createdAt,value
2018-12-10T00:00:05.534Z,7.40
2018-12-10T00:02:31.868Z,7.40
2018-12-10T00:04:58.125Z,7.30
2018-12-10T00:07:24.208Z,7.30
2018-12-10T00:09:50.609Z,7.30
2018-12-10T00:12:17.001Z,7.30
2018-12-10T00:14:43.099Z,7.30
2018-12-10T00:17:09.408Z,7.20
2018-12-10T00:19:36.013Z,7.30
2018-12-10T00:22:02.444Z,7.20
2018-12-10T00:24:28.557Z,7.20
2018-12-10T00:27:02.341Z,7.20
2018-12-10T00:29:28.367Z,7.30
2018-12-10T00:31:54.494Z,7.30
2018-12-10T00:34:20.642Z,7.30
2018-12-10T00:36:46.741Z,7.20
2018-12-10T00:39:12.991Z,7.10
2018-12-10T00:44:47.850Z,7.20
2018-12-10T00:47:14.011Z,7.10
2018-12-10T00:49:40.207Z,7.00
2018-12-10T00:52:06.452Z,6.80
2018-12-10T00:54:32.605Z,6.70
2018-12-10T00:56:58.789Z,6.70
2018-12-10T00:59:24.947Z,6.60
2018-12-10T01:01:51.089Z,6.70
2018-12-10T01:04:17.303Z,6.60
2018-12-10T01:06:43.597Z,6.60
2018-12-10T01:09:09.733Z,6.60
2018-12-10T01:11:35.947Z,6.70
2018-12-10T01:14:02.274Z,6.60
2018-12-10T01:16:28.591Z,6.60
2018-12-10T01:18:54.862Z,6.60
2018-12-10T01:21:20.885Z,6.70
2018-12-10T01:23:47.143Z,6.60
2018-12-10T01:26:13.309Z,6.70
2018-12-10T01:28:39.410Z,6.70
2018-12-10T01:31:07.621Z,6.70
2018-12-10T01:33:33.789Z,6.70
2018-12-10T01:35:59.877Z,6.70
2018-12-10T01:40:59.178Z,6.70
2018-12-10T01:43:25.347Z,6.70
2018-12-10T01:45:51.468Z,6.60
2018-12-10T01:48:17.670Z,6.60
2018-12-10T01:50:44.031Z,6.60
2018-12-10T01:53:10.216Z,6.60
2018-12-10T01:55:36.506Z,6.60
2018-12-10T02:00:57.494Z,6.70
2018-12-10T02:03:23.507Z,6.60
2018-12-10T02:05:53.778Z,6.60
2018-12-10T02:08:20.193Z,6.50
2018-12-10T02:10:46.578Z,6.60
2018-12-10T02:13:12.693Z,6.60
2018-12-10T02:15:38.884Z,6.60
2018-12-10T02:18:05.026Z,6.40
2018-12-10T02:20:31.378Z,6.60
2018-12-10T02:22:58.650Z,6.60
2018-12-10T02:25:24.775Z,6.60
2018-12-10T02:27:51.187Z,6.60
2018-12-10T02:30:22.593Z,6.60
2018-12-10T02:32:48.768Z,6.60
2018-12-10T02:35:15.014Z,6.70
2018-12-10T02:37:42.234Z,6.70
2018-12-10T02:40:08.564Z,6.60
2018-12-10T02:42:34.854Z,6.50
2018-12-10T02:45:01.195Z,6.50
2018-12-10T02:47:34.291Z,6.50
2018-12-10T02:50:00.389Z,6.40
2018-12-10T02:52:27.587Z,6.20
2018-12-10T02:54:53.735Z,6.10
2018-12-10T02:57:19.771Z,6.00
2018-12-10T02:59:45.984Z,5.90
2018-12-10T03:02:12.210Z,5.90
2018-12-10T03:04:38.368Z,5.90
2018-12-10T03:07:05.600Z,5.80
2018-12-10T03:09:31.830Z,5.70
2018-12-10T03:11:58.011Z,5.50
2018-12-10T03:14:24.340Z,5.50
2018-12-10T03:16:50.613Z,5.50
2018-12-10T03:19:17.107Z,5.50
2018-12-10T03:21:43.293Z,5.40
2018-12-10T03:24:10.487Z,5.50
2018-12-10T03:26:36.673Z,5.60
2018-12-10T03:29:02.841Z,5.60
2018-12-10T03:31:29.167Z,5.60
2018-12-10T03:33:55.359Z,5.60
2018-12-10T03:36:21.611Z,5.60
2018-12-10T03:38:48.084Z,5.70
2018-12-10T03:41:14.325Z,5.60
2018-12-10T03:43:40.580Z,5.60
2018-12-10T03:46:06.817Z,5.60
2018-12-10T03:48:33.034Z,5.70
2018-12-10T03:50:59.072Z,5.70
2018-12-10T03:53:26.383Z,5.70
2018-12-10T03:55:52.549Z,5.80
2018-12-10T03:58:18.733Z,5.70
2018-12-10T04:00:46.990Z,5.80
2018-12-10T04:03:13.369Z,5.80
2018-12-10T04:05:39.471Z,5.70
2018-12-10T04:08:05.596Z,5.80
2018-12-10T04:10:31.912Z,5.90
2018-12-10T04:12:58.115Z,5.80
2018-12-10T04:15:24.311Z,5.80
2018-12-10T04:17:51.612Z,5.90
2018-12-10T04:20:17.911Z,5.90
2018-12-10T04:22:44.231Z,5.90
2018-12-10T04:25:11.504Z,5.90
2018-12-10T04:27:37.584Z,5.90
2018-12-10T04:30:04.091Z,5.90
2018-12-10T04:32:30.234Z,5.90
2018-12-10T04:34:56.508Z,5.90
2018-12-10T04:37:22.703Z,5.90
2018-12-10T04:39:48.904Z,6.00
2018-12-10T04:42:15.185Z,6.00
2018-12-10T04:44:41.256Z,6.00
2018-12-10T04:47:07.440Z,6.00
2018-12-10T04:49:33.748Z,5.90
2018-12-10T04:52:00.059Z,5.90
2018-12-10T04:54:26.340Z,6.00
2018-12-10T04:56:52.528Z,5.90
2018-12-10T04:59:18.568Z,5.90
2018-12-10T05:01:44.775Z,5.90
2018-12-10T05:04:11.168Z,5.90
2018-12-10T05:06:37.359Z,5.90
2018-12-10T05:09:04.975Z,5.90
2018-12-10T05:11:31.265Z,5.90
2018-12-10T05:13:57.474Z,6.00
2018-12-10T05:16:26.855Z,5.90
2018-12-10T05:18:53.131Z,5.90
2018-12-10T05:21:24.433Z,5.90
2018-12-10T05:23:51.073Z,5.90
2018-12-10T05:26:18.365Z,5.90
2018-12-10T05:28:44.571Z,5.80
2018-12-10T05:31:13.403Z,5.80
2018-12-10T05:36:35.086Z,5.90
2018-12-10T05:39:03.766Z,5.90
2018-12-10T05:41:29.987Z,6.00
2018-12-10T05:43:56.183Z,6.00
2018-12-10T05:46:22.736Z,5.90
2018-12-10T05:48:48.875Z,6.00
2018-12-10T05:51:15.222Z,6.00
2018-12-10T05:53:42.383Z,6.00
2018-12-10T05:56:08.689Z,6.00
2018-12-10T05:58:34.747Z,5.90
2018-12-10T06:01:00.946Z,5.90
2018-12-10T06:03:27.171Z,5.90
2018-12-10T06:05:53.311Z,5.90
2018-12-10T06:08:19.418Z,5.90
2018-12-10T06:10:45.783Z,5.80
2018-12-10T06:13:12.048Z,5.80
2018-12-10T06:15:38.399Z,5.80
2018-12-10T06:18:04.644Z,5.80
2018-12-10T06:20:32.383Z,5.70
2018-12-10T06:23:05.825Z,5.80
2018-12-10T06:25:32.114Z,5.80
2018-12-10T06:27:58.341Z,5.80
2018-12-10T06:30:24.613Z,5.80
2018-12-10T06:32:50.818Z,5.90
2018-12-10T06:35:17.053Z,5.90
2018-12-10T06:37:43.330Z,5.90
2018-12-10T06:40:09.722Z,5.90
2018-12-10T06:42:39.869Z,6.00
2018-12-10T06:45:05.976Z,5.90
2018-12-10T06:47:32.136Z,6.00
2018-12-10T06:49:58.302Z,5.90
2018-12-10T06:52:24.574Z,5.90
2018-12-10T06:54:50.842Z,6.00
2018-12-10T06:57:17.031Z,5.90
2018-12-10T06:59:43.263Z,5.90
2018-12-10T07:02:10.640Z,6.00
2018-12-10T07:04:37.052Z,6.00
2018-12-10T07:07:03.330Z,6.00
2018-12-10T07:09:30.374Z,5.90
2018-12-10T07:11:56.635Z,6.00
2018-12-10T07:14:22.814Z,6.00
2018-12-10T07:16:49.531Z,5.80
2018-12-10T07:19:15.608Z,5.80
2018-12-10T07:21:48.827Z,5.90
2018-12-10T07:24:15.010Z,5.90
2018-12-10T07:26:42.247Z,6.00
2018-12-10T07:29:08.533Z,5.90
2018-12-10T07:31:34.610Z,5.90
2018-12-10T07:34:00.754Z,5.80
2018-12-10T07:36:27.206Z,5.70
2018-12-10T07:38:55.435Z,5.70
2018-12-10T07:41:21.720Z,5.70
2018-12-10T07:43:48.699Z,5.60
2018-12-10T07:46:16.066Z,5.60
2018-12-10T07:48:43.194Z,5.60
2018-12-10T07:51:09.554Z,5.60
2018-12-10T07:56:04.120Z,5.60
2018-12-10T07:58:30.643Z,5.60
2018-12-10T08:00:57.091Z,5.60
2018-12-10T08:03:23.193Z,5.70
2018-12-10T08:05:53.339Z,5.70
2018-12-10T08:08:19.633Z,5.80
2018-12-10T08:10:45.882Z,5.80
2018-12-10T08:13:12.123Z,5.80
2018-12-10T08:15:38.341Z,5.80
2018-12-10T08:18:04.559Z,5.90
2018-12-10T08:20:30.859Z,6.00
2018-12-10T08:22:57.028Z,6.00
2018-12-10T08:25:23.411Z,6.00
2018-12-10T08:27:49.582Z,6.10
2018-12-10T08:30:16.012Z,6.10
2018-12-10T08:32:42.211Z,6.00
2018-12-10T08:35:08.426Z,6.00
2018-12-10T08:37:41.562Z,6.00
2018-12-10T08:40:07.770Z,6.00
2018-12-10T08:42:40.781Z,6.00
2018-12-10T08:45:07.044Z,6.00
2018-12-10T08:47:33.325Z,6.10
2018-12-10T08:49:59.674Z,6.10
2018-12-10T08:52:25.926Z,5.90
2018-12-10T08:54:52.014Z,5.90
2018-12-10T08:57:18.256Z,5.90
2018-12-10T08:59:44.551Z,6.00
2018-12-10T09:02:10.786Z,6.00
2018-12-10T09:04:37.001Z,6.10
2018-12-10T09:07:03.262Z,6.00
2018-12-10T09:09:29.613Z,6.00
2018-12-10T09:12:01.078Z,6.00
2018-12-10T09:14:27.348Z,6.00
2018-12-10T09:16:56.067Z,6.00
2018-12-10T09:19:22.360Z,6.10
2018-12-10T09:21:48.619Z,6.10
2018-12-10T09:24:14.746Z,6.10
2018-12-10T09:26:40.962Z,6.00
2018-12-10T09:29:07.717Z,6.10
2018-12-10T09:31:35.205Z,6.20
2018-12-10T09:34:01.483Z,6.20
2018-12-10T09:36:28.629Z,6.30
2018-12-10T09:38:55.010Z,6.30
2018-12-10T09:41:22.232Z,6.30
2018-12-10T09:43:48.572Z,6.40
2018-12-10T09:46:14.842Z,6.40
2018-12-10T09:48:41.019Z,6.40
2018-12-10T09:51:07.337Z,6.50
2018-12-10T09:53:40.573Z,6.50
2018-12-10T09:56:06.861Z,6.50
2018-12-10T09:58:33.102Z,6.60
2018-12-10T10:01:04.066Z,6.50
2018-12-10T10:03:30.339Z,6.50
2018-12-10T10:05:56.765Z,6.60
2018-12-10T10:08:22.929Z,6.70
2018-12-10T10:10:49.207Z,6.80
2018-12-10T10:13:15.425Z,6.80
2018-12-10T10:15:41.651Z,6.70
2018-12-10T10:18:07.976Z,6.80
2018-12-10T10:20:34.171Z,6.80
2018-12-10T10:23:01.557Z,6.90
2018-12-10T10:25:27.844Z,6.90
2018-12-10T10:27:56.250Z,7.00
2018-12-10T10:30:22.562Z,7.00
2018-12-10T10:32:48.649Z,6.90
2018-12-10T10:35:14.918Z,6.90
2018-12-10T10:37:41.353Z,6.90
2018-12-10T10:40:07.584Z,6.90
2018-12-10T10:42:33.679Z,6.90
2018-12-10T10:44:59.778Z,6.90
2018-12-10T10:47:26.264Z,7.10
2018-12-10T10:49:52.527Z,7.20
2018-12-10T10:52:18.805Z,7.10
2018-12-10T10:54:45.110Z,7.10
2018-12-10T11:00:12.136Z,7.00
2018-12-10T11:02:41.647Z,7.10
2018-12-10T11:05:07.882Z,7.00
2018-12-10T11:07:34.013Z,7.00
2018-12-10T11:10:00.357Z,7.10
2018-12-10T11:12:26.690Z,7.10
2018-12-10T11:14:52.925Z,7.00
2018-12-10T11:17:19.041Z,7.00
2018-12-10T11:19:45.357Z,7.00
2018-12-10T11:22:11.946Z,7.00
2018-12-10T11:24:42.576Z,7.10
2018-12-10T11:27:08.727Z,7.10
2018-12-10T11:29:39.164Z,7.10
2018-12-10T11:32:05.311Z,7.10
2018-12-10T11:34:34.977Z,7.10
2018-12-10T11:37:01.134Z,7.10
2018-12-10T11:39:29.819Z,7.10
2018-12-10T11:41:57.204Z,7.00
2018-12-10T11:44:25.109Z,7.00
2018-12-10T11:46:51.367Z,6.90
2018-12-10T11:49:18.564Z,6.90
2018-12-10T11:51:44.831Z,6.90
2018-12-10T11:54:11.254Z,6.90
2018-12-10T11:56:37.589Z,6.90
2018-12-10T11:59:06.860Z,6.90
2018-12-10T12:01:33.245Z,7.00
2018-12-10T12:03:59.679Z,6.90
2018-12-10T12:06:25.942Z,6.90
2018-12-10T12:08:51.990Z,7.00
2018-12-10T12:11:18.186Z,6.90
2018-12-10T12:13:45.363Z,6.90
2018-12-10T12:16:11.701Z,6.70
2018-12-10T12:18:37.767Z,6.50
2018-12-10T12:21:04.127Z,6.50
2018-12-10T12:23:30.423Z,6.40
2018-12-10T12:25:56.609Z,6.40
2018-12-10T12:28:22.888Z,6.40
2018-12-10T12:30:49.747Z,6.40
2018-12-10T12:33:22.009Z,6.40
2018-12-10T12:35:50.595Z,6.40
2018-12-10T12:38:16.966Z,6.50
2018-12-10T12:40:43.152Z,6.50
2018-12-10T12:43:15.758Z,6.50
2018-12-10T12:45:37.739Z,6.60
2018-12-10T12:48:03.988Z,6.70
2018-12-10T12:50:30.374Z,6.50
2018-12-10T12:52:56.636Z,6.60
2018-12-10T12:58:18.262Z,6.60
2018-12-10T13:00:44.479Z,6.60
2018-12-10T13:03:11.726Z,6.60
2018-12-10T13:05:38.023Z,6.60
2018-12-10T13:08:04.353Z,6.60
2018-12-10T13:10:32.751Z,6.60
2018-12-10T13:13:01.002Z,6.60
2018-12-10T13:15:32.288Z,6.70
2018-12-10T13:17:58.432Z,6.60
2018-12-10T13:20:24.687Z,6.60
2018-12-10T13:22:51.176Z,6.60
2018-12-10T13:25:17.301Z,6.60
2018-12-10T13:27:44.719Z,6.60
2018-12-10T13:30:11.066Z,6.60
2018-12-10T13:32:37.307Z,6.70
2018-12-10T13:35:03.601Z,6.70
2018-12-10T13:37:29.930Z,6.70
2018-12-10T13:39:56.184Z,6.60
2018-12-10T13:42:22.513Z,6.70
2018-12-10T13:44:55.706Z,6.80
2018-12-10T13:47:21.890Z,6.80
2018-12-10T13:49:48.124Z,6.80
2018-12-10T13:52:15.517Z,6.70
2018-12-10T13:54:41.674Z,6.70
2018-12-10T13:57:08.101Z,6.70
2018-12-10T13:59:34.321Z,6.70
2018-12-10T14:02:00.881Z,6.70
2018-12-10T14:04:29.079Z,6.70
2018-12-10T14:06:56.261Z,6.70
2018-12-10T14:09:23.085Z,6.70
2018-12-10T14:11:49.131Z,6.70
2018-12-10T14:14:21.719Z,6.70
2018-12-10T14:16:52.578Z,6.60
2018-12-10T14:19:21.477Z,6.60
2018-12-10T14:21:47.690Z,6.50
2018-12-10T14:24:14.113Z,6.50
2018-12-10T14:26:40.484Z,6.50
2018-12-10T14:29:07.905Z,6.40
2018-12-10T14:31:35.278Z,6.40
2018-12-10T14:34:07.552Z,6.40
2018-12-10T14:36:33.667Z,6.40
2018-12-10T14:38:59.972Z,6.40
2018-12-10T14:41:26.521Z,6.40
2018-12-10T14:46:50.782Z,6.40
2018-12-10T14:49:17.290Z,6.50
2018-12-10T14:51:44.492Z,6.50
2018-12-10T14:54:11.094Z,6.50
2018-12-10T14:56:37.732Z,6.50
2018-12-10T14:59:04.585Z,6.60
2018-12-10T15:01:30.838Z,6.60
2018-12-10T15:03:58.320Z,6.70
2018-12-10T15:06:24.540Z,6.70
2018-12-10T15:08:50.867Z,6.60
2018-12-10T15:11:17.178Z,6.60
2018-12-10T15:13:43.547Z,6.60
2018-12-10T15:16:11.805Z,6.50
2018-12-10T15:21:38.309Z,6.40
2018-12-10T15:24:04.543Z,6.40
2018-12-10T15:26:30.792Z,6.40
2018-12-10T15:28:56.836Z,6.30
2018-12-10T15:31:27.847Z,6.30
2018-12-10T15:36:48.820Z,6.40
2018-12-10T15:39:14.958Z,6.30
2018-12-10T15:41:43.326Z,6.40
2018-12-10T15:44:11.476Z,6.30
2018-12-10T15:46:38.754Z,6.30
2018-12-10T15:49:05.058Z,6.30
2018-12-10T15:51:31.378Z,6.30
2018-12-10T15:54:01.654Z,6.30
2018-12-10T15:56:28.028Z,6.30
2018-12-10T15:58:54.303Z,6.30
2018-12-10T16:01:22.649Z,6.20
2018-12-10T16:03:49.024Z,6.20
2018-12-10T16:06:28.272Z,6.20
2018-12-10T16:08:54.727Z,6.20
2018-12-10T16:14:16.776Z,6.10
2018-12-10T16:16:43.390Z,6.20
2018-12-10T16:19:09.834Z,6.10
2018-12-10T16:21:37.046Z,6.20
2018-12-10T16:24:04.075Z,6.20
2018-12-10T16:26:30.229Z,6.20
2018-12-10T16:28:56.594Z,6.10
2018-12-10T16:31:23.083Z,6.20
2018-12-10T16:33:49.546Z,6.20
2018-12-10T16:36:18.258Z,6.10
2018-12-10T16:38:46.554Z,6.20
2018-12-10T16:41:16.205Z,6.10
2018-12-10T16:43:42.502Z,6.10
2018-12-10T16:46:08.682Z,6.10
2018-12-10T16:48:35.007Z,6.10
2018-12-10T16:51:01.448Z,6.10
2018-12-10T16:53:27.943Z,6.10
2018-12-10T16:55:54.308Z,6.10
2018-12-10T16:58:21.763Z,6.10
2018-12-10T17:00:48.263Z,6.10
2018-12-10T17:03:17.970Z,6.10
2018-12-10T17:05:44.262Z,6.10
2018-12-10T17:08:10.663Z,6.10
2018-12-10T17:10:36.703Z,6.10
2018-12-10T17:13:03.098Z,6.10
2018-12-10T17:15:34.728Z,6.10
2018-12-10T17:18:10.036Z,6.10
2018-12-10T17:20:36.418Z,6.10
2018-12-10T17:23:04.777Z,6.00
2018-12-10T17:25:33.017Z,6.00
2018-12-10T17:28:01.321Z,6.00
2018-12-10T17:30:27.681Z,6.00
2018-12-10T17:32:53.822Z,6.00
2018-12-10T17:35:20.259Z,6.00
2018-12-10T17:37:46.542Z,6.00
2018-12-10T17:43:07.775Z,6.00
2018-12-10T17:45:34.617Z,6.00
2018-12-10T17:48:00.847Z,6.00
2018-12-10T17:50:27.256Z,6.00
2018-12-10T17:52:53.465Z,5.90
2018-12-10T17:55:19.753Z,5.90
2018-12-10T17:57:46.095Z,5.90
2018-12-10T18:00:14.689Z,5.90
2018-12-10T18:02:41.170Z,5.90
2018-12-10T18:05:07.792Z,5.90
2018-12-10T18:07:34.250Z,6.00
2018-12-10T18:10:04.055Z,5.90
2018-12-10T18:12:30.524Z,5.90
2018-12-10T18:14:57.087Z,5.90
2018-12-10T18:17:24.412Z,5.90
2018-12-10T18:19:52.842Z,5.90
2018-12-10T18:22:21.261Z,5.90
2018-12-10T18:24:48.856Z,6.00
2018-12-10T18:27:15.267Z,6.00
2018-12-10T18:29:42.952Z,5.90
2018-12-10T18:32:09.399Z,6.00
2018-12-10T18:34:35.920Z,6.00
2018-12-10T18:37:02.413Z,6.00
2018-12-10T18:39:28.931Z,6.00
2018-12-10T18:41:56.234Z,6.00
2018-12-10T18:44:22.526Z,5.90
2018-12-10T18:46:49.947Z,5.80
2018-12-10T18:49:16.270Z,5.70
2018-12-10T18:51:43.341Z,5.60
2018-12-10T18:54:10.070Z,5.50
2018-12-10T18:56:36.464Z,5.40
2018-12-10T18:59:02.941Z,5.40
2018-12-10T19:01:29.375Z,5.30
2018-12-10T19:03:56.549Z,5.30
2018-12-10T19:06:27.570Z,5.30
2018-12-10T19:08:55.962Z,5.30
2018-12-10T19:14:07.458Z,5.30
2018-12-10T19:16:34.153Z,5.40
2018-12-10T19:19:00.545Z,5.40
2018-12-10T19:21:29.693Z,5.40
2018-12-10T19:23:56.527Z,5.50
2018-12-10T19:26:30.697Z,5.50
2018-12-10T19:28:58.875Z,5.50
2018-12-10T19:31:25.412Z,5.50
2018-12-10T19:33:52.026Z,5.50
2018-12-10T19:36:20.401Z,5.60
2018-12-10T19:38:49.003Z,5.50
2018-12-10T19:41:15.429Z,5.50
2018-12-10T19:43:42.604Z,5.50
2018-12-10T19:46:09.056Z,5.40
2018-12-10T19:48:36.355Z,5.40
2018-12-10T19:51:02.910Z,5.40
2018-12-10T19:53:29.287Z,5.40
2018-12-10T19:55:56.996Z,5.50
2018-12-10T19:58:26.054Z,5.50
2018-12-10T20:01:02.967Z,5.50
2018-12-10T20:03:31.975Z,5.50
2018-12-10T20:06:05.067Z,5.50
2018-12-10T20:08:31.543Z,5.40
2018-12-10T20:10:57.769Z,5.50
2018-12-10T20:13:24.499Z,5.50
2018-12-10T20:15:51.451Z,5.40
2018-12-10T20:18:18.553Z,5.40
2018-12-10T20:20:45.112Z,5.40
2018-12-10T20:23:13.570Z,5.40
2018-12-10T20:25:42.154Z,5.40
2018-12-10T20:28:08.679Z,5.50
2018-12-10T20:30:36.857Z,5.50
2018-12-10T20:33:06.173Z,5.50
2018-12-10T20:35:35.318Z,5.50
2018-12-10T20:38:01.807Z,5.50
2018-12-10T20:40:29.003Z,5.50
2018-12-10T20:42:55.605Z,5.50
2018-12-10T20:45:22.015Z,5.50
2018-12-10T20:47:53.453Z,5.40
2018-12-10T20:50:27.135Z,5.40
2018-12-10T20:58:48.108Z,5.50
2018-12-10T21:01:16.256Z,5.40
2018-12-10T21:03:44.499Z,5.40
2018-12-10T21:06:17.477Z,5.50
2018-12-10T21:08:44.844Z,5.40
2018-12-10T21:11:11.241Z,5.40
2018-12-10T21:13:38.771Z,5.40
2018-12-10T21:16:05.443Z,5.40
2018-12-10T21:18:31.730Z,5.40
2018-12-10T21:20:58.416Z,5.40
2018-12-10T21:23:24.591Z,5.50
2018-12-10T21:25:51.341Z,5.50
2018-12-10T21:28:17.967Z,5.50
2018-12-10T21:30:44.536Z,5.60
2018-12-10T21:33:10.791Z,5.50
2018-12-10T21:35:37.176Z,5.50
2018-12-10T21:38:04.767Z,5.50
2018-12-10T21:40:31.954Z,5.50
2018-12-10T21:42:58.698Z,5.60
2018-12-10T21:45:26.330Z,5.60
2018-12-10T21:47:53.434Z,5.60
2018-12-10T21:50:21.648Z,5.60
2018-12-10T21:52:49.057Z,5.70
2018-12-10T21:55:17.023Z,5.60
2018-12-10T21:57:44.391Z,5.50
2018-12-10T22:00:11.884Z,5.60
2018-12-10T22:02:38.719Z,5.70
2018-12-10T22:05:05.829Z,5.70
2018-12-10T22:07:33.906Z,5.70
2018-12-10T22:10:00.670Z,5.70
2018-12-10T22:12:27.346Z,5.70
2018-12-10T22:14:53.783Z,5.70
2018-12-10T22:17:22.373Z,5.70
2018-12-10T22:19:49.787Z,5.70
2018-12-10T22:22:16.532Z,5.80
2018-12-10T22:24:43.890Z,5.80
2018-12-10T22:27:10.222Z,5.70
2018-12-10T22:29:37.975Z,5.80
2018-12-10T22:32:04.591Z,5.70
2018-12-10T22:34:31.894Z,5.70
2018-12-10T22:36:58.613Z,5.70
2018-12-10T22:39:27.079Z,5.80
2018-12-10T22:41:53.356Z,5.70
2018-12-10T22:44:19.807Z,5.70
2018-12-10T22:46:46.800Z,5.80
2018-12-10T22:49:13.170Z,5.80
2018-12-10T22:51:40.409Z,5.80
2018-12-10T22:54:12.321Z,5.70
2018-12-10T22:56:38.549Z,5.60
2018-12-10T22:59:04.913Z,5.70
2018-12-10T23:01:31.300Z,5.70
2018-12-10T23:03:57.471Z,5.70
2018-12-10T23:06:30.681Z,5.70
2018-12-10T23:08:56.930Z,5.80
2018-12-10T23:11:23.029Z,5.80
2018-12-10T23:13:49.198Z,5.70
2018-12-10T23:16:15.507Z,5.70
2018-12-10T23:18:41.799Z,5.70
2018-12-10T23:21:07.879Z,5.70
2018-12-10T23:23:34.074Z,5.70
2018-12-10T23:26:00.429Z,5.70
2018-12-10T23:28:26.597Z,5.70
2018-12-10T23:30:52.758Z,5.70
2018-12-10T23:33:19.055Z,5.70
2018-12-10T23:35:45.297Z,5.70
2018-12-10T23:38:11.454Z,5.70
2018-12-10T23:40:37.682Z,5.80
2018-12-10T23:43:09.940Z,5.70
2018-12-10T23:45:36.204Z,5.80
2018-12-10T23:48:04.460Z,5.70
2018-12-10T23:50:30.427Z,5.70
2018-12-10T23:52:56.413Z,5.70
2018-12-10T23:55:22.685Z,5.70
2018-12-10T23:57:48.905Z,5.60
